ZYTX

Shenyang Taoxian International Airport

Airport
ICAO code
ZYTX
IATA Code
SHE
Summary
ICAO Region
APAC
ICAO Territory
Location

Shenyang, Liaoning,

Serving
Shenyang
Elevation
198 ft
Coordinates
41° 38' 24" N , 123° 29' 1" E
KCC
Metar
ZYTX 242100Z VRB01MPS CAVOK 14/13 Q1010 NOSIG

Description

Shenyang Taoxian International Airport is an airport in Shenyang, Liaoning, China. It is located about 20 km south of the city center.

Climatology

Warm continental climate/Humid continental climate (Köppen climate classification Dwa).

Airport map

Aerial View

SKYbrary Partners:

Safety knowledge contributed by: